Aviation Digital Data Service (ADDS)

Output produced by METARs form (0854 UTC 19 November 2018)
found at http://www.aviationweather.gov/metar/data/
 
RJCC 190830Z 35013KT 9999 FEW009 SCT025 BKN070 05/03 Q1013 RMK 1ST009 3CU025 5AC070 A2992
RJCC 190816Z 35014KT 9999 -SHRA FEW007 SCT009 BKN015 05/03 Q1013 RMK 1ST007 3ST009 5ST015 A2992
RJCC 190800Z 33018KT 9999 -SHRA FEW007 BKN009 BKN015 05/03 Q1013 RMK 1ST007 5ST009 6ST015 A2992
TAF AMD RJCC 190823Z 1908/2012 34012KT 9999 FEW006 BKN015 
     TEMPO 1915/1921 3000 -SHSN